Pflugerville, Texas
Current Conditions -  °F | °C
As of 9:55 AM on Friday 28 Nov 2014 (Local Time) from KEDC Reporting Station
Broken Clouds Broken Clouds  
Wind Chill: 57°   Ceiling: 3700
Heat Index: 57°   Visibility: 10mi
Dew Point: 48°   Wind: 12mph
Humidity: 72%   Direction: 210°SSW
Pressure: 30.31"   Gusts: NA
Location:  30.44°N, 97.62°W
Report Text: KEDC 281555Z AUTO 21010KT 10SM SCT019 BKN037 14/09 A3031 RMK AO2
Loading
Personal Weather Stations






























Interactive Weather Map New forecast layout! Learn more

10-Day Weather Forecast

Advertisements
Track Severe Weather on mobile